sensor_id;sensor_type;location;lat;lon;timestamp;temperature;humidity
47162;DHT22;32921;53.256;8.198;2024-01-30T00:01:15;6.30;99.90
47162;DHT22;32921;53.256;8.198;2024-01-30T00:03:41;6.40;99.90
47162;DHT22;32921;53.256;8.198;2024-01-30T00:06:08;6.40;99.90
47162;DHT22;32921;53.256;8.198;2024-01-30T00:08:33;6.40;99.90
47162;DHT22;32921;53.256;8.198;2024-01-30T00:10:59;6.30;99.90
47162;DHT22;32921;53.256;8.198;2024-01-30T00:13:25;6.30;99.90
47162;DHT22;32921;53.256;8.198;2024-01-30T00:15:50;6.40;99.90
47162;DHT22;32921;53.256;8.198;2024-01-30T00:18:16;6.40;99.90
47162;DHT22;32921;53.256;8.198;2024-01-30T00:20:41;6.50;99.90
47162;DHT22;32921;53.256;8.198;2024-01-30T00:23:08;6.50;99.90
47162;DHT22;32921;53.256;8.198;2024-01-30T00:25:34;6.50;99.90
47162;DHT22;32921;53.256;8.198;2024-01-30T00:28:00;6.50;99.90
47162;DHT22;32921;53.256;8.198;2024-01-30T00:30:25;6.50;99.90
47162;DHT22;32921;53.256;8.198;2024-01-30T00:32:51;6.50;99.90
47162;DHT22;32921;53.256;8.198;2024-01-30T00:35:17;6.50;99.90
47162;DHT22;32921;53.256;8.198;2024-01-30T00:37:42;6.50;99.90
47162;DHT22;32921;53.256;8.198;2024-01-30T00:40:08;6.60;99.90
47162;DHT22;32921;53.256;8.198;2024-01-30T00:42:39;6.50;99.90
47162;DHT22;32921;53.256;8.198;2024-01-30T00:45:04;6.50;99.90
47162;DHT22;32921;53.256;8.198;2024-01-30T00:47:31;6.50;99.90
47162;DHT22;32921;53.256;8.198;2024-01-30T00:49:58;6.50;99.90
47162;DHT22;32921;53.256;8.198;2024-01-30T00:52:23;6.60;99.90
47162;DHT22;32921;53.256;8.198;2024-01-30T00:54:49;6.50;99.90
47162;DHT22;32921;53.256;8.198;2024-01-30T00:57:15;6.50;99.90
47162;DHT22;32921;53.256;8.198;2024-01-30T00:59:40;6.50;99.90
47162;DHT22;32921;53.256;8.198;2024-01-30T01:02:06;6.50;99.90
47162;DHT22;32921;53.256;8.198;2024-01-30T01:04:31;6.50;99.90
47162;DHT22;32921;53.256;8.198;2024-01-30T01:06:57;6.40;99.90
47162;DHT22;32921;53.256;8.198;2024-01-30T01:09:22;6.50;99.90
47162;DHT22;32921;53.256;8.198;2024-01-30T01:11:48;6.30;99.90
47162;DHT22;32921;53.256;8.198;2024-01-30T01:14:14;6.40;99.90
47162;DHT22;32921;53.256;8.198;2024-01-30T01:16:39;6.30;99.90
47162;DHT22;32921;53.256;8.198;2024-01-30T01:19:05;6.20;99.90
47162;DHT22;32921;53.256;8.198;2024-01-30T01:21:30;6.20;99.90
47162;DHT22;32921;53.256;8.198;2024-01-30T01:23:56;6.10;99.90
47162;DHT22;32921;53.256;8.198;2024-01-30T01:26:21;6.00;99.90
47162;DHT22;32921;53.256;8.198;2024-01-30T01:28:47;6.00;99.90
47162;DHT22;32921;53.256;8.198;2024-01-30T01:31:13;6.00;99.90
47162;DHT22;32921;53.256;8.198;2024-01-30T01:33:39;5.90;99.90
47162;DHT22;32921;53.256;8.198;2024-01-30T01:36:05;5.90;99.90
47162;DHT22;32921;53.256;8.198;2024-01-30T01:38:32;5.80;99.90
47162;DHT22;32921;53.256;8.198;2024-01-30T01:40:57;5.70;99.90
47162;DHT22;32921;53.256;8.198;2024-01-30T01:43:23;5.70;99.90
47162;DHT22;32921;53.256;8.198;2024-01-30T01:45:48;5.80;99.90
47162;DHT22;32921;53.256;8.198;2024-01-30T01:48:14;5.80;99.90
47162;DHT22;32921;53.256;8.198;2024-01-30T01:50:41;5.80;99.90
47162;DHT22;32921;53.256;8.198;2024-01-30T01:53:08;5.70;99.90
47162;DHT22;32921;53.256;8.198;2024-01-30T01:55:34;5.70;99.90
47162;DHT22;32921;53.256;8.198;2024-01-30T01:58:01;5.80;99.90
47162;DHT22;32921;53.256;8.198;2024-01-30T02:00:36;5.80;99.90
47162;DHT22;32921;53.256;8.198;2024-01-30T02:03:05;5.80;99.90
47162;DHT22;32921;53.256;8.198;2024-01-30T02:05:32;5.80;99.90
47162;DHT22;32921;53.256;8.198;2024-01-30T02:07:57;5.80;99.90
47162;DHT22;32921;53.256;8.198;2024-01-30T02:10:23;5.70;99.90
47162;DHT22;32921;53.256;8.198;2024-01-30T02:12:49;5.70;99.90
47162;DHT22;32921;53.256;8.198;2024-01-30T02:15:15;5.60;99.90
47162;DHT22;32921;53.256;8.198;2024-01-30T02:17:41;5.60;99.90
47162;DHT22;32921;53.256;8.198;2024-01-30T02:20:06;5.50;99.90
47162;DHT22;32921;53.256;8.198;2024-01-30T02:22:33;5.60;99.90
47162;DHT22;32921;53.256;8.198;2024-01-30T02:24:59;5.50;99.90
47162;DHT22;32921;53.256;8.198;2024-01-30T02:27:25;5.40;99.90
47162;DHT22;32921;53.256;8.198;2024-01-30T02:29:50;5.40;99.90
47162;DHT22;32921;53.256;8.198;2024-01-30T02:32:16;5.40;99.90
47162;DHT22;32921;53.256;8.198;2024-01-30T02:34:42;5.50;99.90
47162;DHT22;32921;53.256;8.198;2024-01-30T02:37:08;5.50;99.90
47162;DHT22;32921;53.256;8.198;2024-01-30T02:39:33;5.50;99.90
47162;DHT22;32921;53.256;8.198;2024-01-30T02:41:59;5.50;99.90
47162;DHT22;32921;53.256;8.198;2024-01-30T02:44:25;5.40;99.90
47162;DHT22;32921;53.256;8.198;2024-01-30T02:46:50;5.50;99.90
47162;DHT22;32921;53.256;8.198;2024-01-30T02:49:16;5.50;99.90
47162;DHT22;32921;53.256;8.198;2024-01-30T02:51:42;5.50;99.90
47162;DHT22;32921;53.256;8.198;2024-01-30T02:54:07;5.50;99.90
47162;DHT22;32921;53.256;8.198;2024-01-30T02:56:33;5.60;99.90
47162;DHT22;32921;53.256;8.198;2024-01-30T02:58:58;5.50;99.90
47162;DHT22;32921;53.256;8.198;2024-01-30T03:01:24;5.50;99.90
47162;DHT22;32921;53.256;8.198;2024-01-30T03:03:50;5.40;99.90
47162;DHT22;32921;53.256;8.198;2024-01-30T03:06:15;5.30;99.90
47162;DHT22;32921;53.256;8.198;2024-01-30T03:08:43;5.40;99.90
47162;DHT22;32921;53.256;8.198;2024-01-30T03:11:08;5.30;99.90
47162;DHT22;32921;53.256;8.198;2024-01-30T03:13:34;5.30;99.90
47162;DHT22;32921;53.256;8.198;2024-01-30T03:15:59;5.30;99.90
47162;DHT22;32921;53.256;8.198;2024-01-30T03:18:25;5.30;99.90
47162;DHT22;32921;53.256;8.198;2024-01-30T03:20:50;5.40;99.90
47162;DHT22;32921;53.256;8.198;2024-01-30T03:23:16;5.50;99.90
47162;DHT22;32921;53.256;8.198;2024-01-30T03:25:42;5.50;99.90
47162;DHT22;32921;53.256;8.198;2024-01-30T03:28:07;5.50;99.90
47162;DHT22;32921;53.256;8.198;2024-01-30T03:30:34;5.60;99.90
47162;DHT22;32921;53.256;8.198;2024-01-30T03:33:00;5.60;99.90
47162;DHT22;32921;53.256;8.198;2024-01-30T03:35:25;5.70;99.90
47162;DHT22;32921;53.256;8.198;2024-01-30T03:37:51;5.80;99.90
47162;DHT22;32921;53.256;8.198;2024-01-30T03:40:16;5.80;99.90
47162;DHT22;32921;53.256;8.198;2024-01-30T03:42:42;5.90;99.90
47162;DHT22;32921;53.256;8.198;2024-01-30T03:45:08;5.80;99.90
47162;DHT22;32921;53.256;8.198;2024-01-30T03:47:34;5.80;99.90
47162;DHT22;32921;53.256;8.198;2024-01-30T03:49:59;5.90;99.90
47162;DHT22;32921;53.256;8.198;2024-01-30T03:52:25;5.90;99.90
47162;DHT22;32921;53.256;8.198;2024-01-30T03:54:50;5.90;99.90
47162;DHT22;32921;53.256;8.198;2024-01-30T03:57:16;5.90;99.90
47162;DHT22;32921;53.256;8.198;2024-01-30T03:59:42;5.90;99.90
47162;DHT22;32921;53.256;8.198;2024-01-30T04:02:09;5.90;99.90
47162;DHT22;32921;53.256;8.198;2024-01-30T04:04:35;5.90;99.90
47162;DHT22;32921;53.256;8.198;2024-01-30T04:07:00;5.80;99.90
47162;DHT22;32921;53.256;8.198;2024-01-30T04:09:26;5.80;99.90
47162;DHT22;32921;53.256;8.198;2024-01-30T04:11:54;5.80;99.90
47162;DHT22;32921;53.256;8.198;2024-01-30T04:14:19;5.70;99.90
47162;DHT22;32921;53.256;8.198;2024-01-30T04:16:45;5.70;99.90
47162;DHT22;32921;53.256;8.198;2024-01-30T04:19:10;5.70;99.90
47162;DHT22;32921;53.256;8.198;2024-01-30T04:21:36;5.80;99.90
47162;DHT22;32921;53.256;8.198;2024-01-30T04:24:01;5.70;99.90
47162;DHT22;32921;53.256;8.198;2024-01-30T04:26:27;5.80;99.90
47162;DHT22;32921;53.256;8.198;2024-01-30T04:28:53;5.90;99.90
47162;DHT22;32921;53.256;8.198;2024-01-30T04:31:18;5.90;99.90
47162;DHT22;32921;53.256;8.198;2024-01-30T04:33:44;5.90;99.90
47162;DHT22;32921;53.256;8.198;2024-01-30T04:36:09;5.90;99.90
47162;DHT22;32921;53.256;8.198;2024-01-30T04:38:35;5.90;99.90
47162;DHT22;32921;53.256;8.198;2024-01-30T04:41:01;5.90;99.90
47162;DHT22;32921;53.256;8.198;2024-01-30T04:43:26;5.80;99.90
47162;DHT22;32921;53.256;8.198;2024-01-30T04:45:52;5.70;99.90
47162;DHT22;32921;53.256;8.198;2024-01-30T04:48:18;5.70;99.90
47162;DHT22;32921;53.256;8.198;2024-01-30T04:50:44;5.80;99.90
47162;DHT22;32921;53.256;8.198;2024-01-30T04:53:09;5.70;99.90
47162;DHT22;32921;53.256;8.198;2024-01-30T04:55:35;5.70;99.90
47162;DHT22;32921;53.256;8.198;2024-01-30T04:58:01;5.80;99.90
47162;DHT22;32921;53.256;8.198;2024-01-30T05:00:27;5.60;99.90
47162;DHT22;32921;53.256;8.198;2024-01-30T05:02:54;5.50;99.90
47162;DHT22;32921;53.256;8.198;2024-01-30T05:05:20;5.60;99.90
47162;DHT22;32921;53.256;8.198;2024-01-30T05:07:47;5.70;99.90
47162;DHT22;32921;53.256;8.198;2024-01-30T05:10:13;5.70;99.90
47162;DHT22;32921;53.256;8.198;2024-01-30T05:12:39;5.80;99.90
47162;DHT22;32921;53.256;8.198;2024-01-30T05:15:05;5.80;99.90
47162;DHT22;32921;53.256;8.198;2024-01-30T05:17:31;5.80;99.90
47162;DHT22;32921;53.256;8.198;2024-01-30T05:19:56;5.90;99.90
47162;DHT22;32921;53.256;8.198;2024-01-30T05:22:22;5.70;99.90
47162;DHT22;32921;53.256;8.198;2024-01-30T05:24:47;5.80;99.90
47162;DHT22;32921;53.256;8.198;2024-01-30T05:27:13;5.70;99.90
47162;DHT22;32921;53.256;8.198;2024-01-30T05:29:39;5.80;99.90
47162;DHT22;32921;53.256;8.198;2024-01-30T05:32:06;5.90;99.90
47162;DHT22;32921;53.256;8.198;2024-01-30T05:34:32;5.90;99.90
47162;DHT22;32921;53.256;8.198;2024-01-30T05:36:57;5.90;99.90
47162;DHT22;32921;53.256;8.198;2024-01-30T05:39:23;5.90;99.90
47162;DHT22;32921;53.256;8.198;2024-01-30T05:41:48;5.90;99.90
47162;DHT22;32921;53.256;8.198;2024-01-30T05:44:14;6.00;99.90
47162;DHT22;32921;53.256;8.198;2024-01-30T05:46:39;6.00;99.90
47162;DHT22;32921;53.256;8.198;2024-01-30T05:49:05;6.10;99.90
47162;DHT22;32921;53.256;8.198;2024-01-30T05:51:31;6.10;99.90
47162;DHT22;32921;53.256;8.198;2024-01-30T05:53:57;6.00;99.90
47162;DHT22;32921;53.256;8.198;2024-01-30T05:56:22;6.00;99.90
47162;DHT22;32921;53.256;8.198;2024-01-30T05:58:48;6.00;99.90
47162;DHT22;32921;53.256;8.198;2024-01-30T06:01:15;6.00;99.90
47162;DHT22;32921;53.256;8.198;2024-01-30T06:03:41;6.00;99.90
47162;DHT22;32921;53.256;8.198;2024-01-30T06:06:08;6.00;99.90
47162;DHT22;32921;53.256;8.198;2024-01-30T06:08:34;6.00;99.90
47162;DHT22;32921;53.256;8.198;2024-01-30T06:11:00;6.00;99.90
47162;DHT22;32921;53.256;8.198;2024-01-30T06:13:26;6.00;99.90
47162;DHT22;32921;53.256;8.198;2024-01-30T06:15:52;6.00;99.90
47162;DHT22;32921;53.256;8.198;2024-01-30T06:18:17;6.00;99.90
47162;DHT22;32921;53.256;8.198;2024-01-30T06:20:43;6.10;99.90
47162;DHT22;32921;53.256;8.198;2024-01-30T06:23:09;6.10;99.90
47162;DHT22;32921;53.256;8.198;2024-01-30T06:25:35;6.20;99.90
47162;DHT22;32921;53.256;8.198;2024-01-30T06:28:01;6.20;99.90
47162;DHT22;32921;53.256;8.198;2024-01-30T06:30:26;6.20;99.90
47162;DHT22;32921;53.256;8.198;2024-01-30T06:32:52;6.30;99.90
47162;DHT22;32921;53.256;8.198;2024-01-30T06:35:18;6.40;99.90
47162;DHT22;32921;53.256;8.198;2024-01-30T06:37:43;6.30;99.90
47162;DHT22;32921;53.256;8.198;2024-01-30T06:40:09;6.40;99.90
47162;DHT22;32921;53.256;8.198;2024-01-30T06:42:35;6.40;99.90
47162;DHT22;32921;53.256;8.198;2024-01-30T06:45:00;6.40;99.90
47162;DHT22;32921;53.256;8.198;2024-01-30T06:47:26;6.40;99.90
47162;DHT22;32921;53.256;8.198;2024-01-30T06:49:52;6.40;99.90
47162;DHT22;32921;53.256;8.198;2024-01-30T06:52:18;6.40;99.90
47162;DHT22;32921;53.256;8.198;2024-01-30T06:54:43;6.40;99.90
47162;DHT22;32921;53.256;8.198;2024-01-30T06:57:09;6.40;99.90
47162;DHT22;32921;53.256;8.198;2024-01-30T06:59:37;6.40;99.90
47162;DHT22;32921;53.256;8.198;2024-01-30T07:02:09;6.40;99.90
47162;DHT22;32921;53.256;8.198;2024-01-30T07:04:35;6.40;99.90
47162;DHT22;32921;53.256;8.198;2024-01-30T07:07:03;6.40;99.90
47162;DHT22;32921;53.256;8.198;2024-01-30T07:09:30;6.30;99.90
47162;DHT22;32921;53.256;8.198;2024-01-30T07:11:56;6.40;99.90
47162;DHT22;32921;53.256;8.198;2024-01-30T07:14:24;6.40;99.90
47162;DHT22;32921;53.256;8.198;2024-01-30T07:16:49;6.50;99.90
47162;DHT22;32921;53.256;8.198;2024-01-30T07:19:15;6.50;99.90
47162;DHT22;32921;53.256;8.198;2024-01-30T07:21:41;6.50;99.90
47162;DHT22;32921;53.256;8.198;2024-01-30T07:24:07;6.50;99.90
47162;DHT22;32921;53.256;8.198;2024-01-30T07:26:32;6.60;99.90
47162;DHT22;32921;53.256;8.198;2024-01-30T07:28:58;6.60;99.90
47162;DHT22;32921;53.256;8.198;2024-01-30T07:31:23;6.60;99.90
47162;DHT22;32921;53.256;8.198;2024-01-30T07:33:49;6.60;99.90
47162;DHT22;32921;53.256;8.198;2024-01-30T07:36:14;6.60;99.90
47162;DHT22;32921;53.256;8.198;2024-01-30T07:38:40;6.70;99.90
47162;DHT22;32921;53.256;8.198;2024-01-30T07:41:06;6.70;99.90
47162;DHT22;32921;53.256;8.198;2024-01-30T07:43:31;6.70;99.90
47162;DHT22;32921;53.256;8.198;2024-01-30T07:45:57;6.80;99.90
47162;DHT22;32921;53.256;8.198;2024-01-30T07:48:23;6.80;99.90
47162;DHT22;32921;53.256;8.198;2024-01-30T07:50:48;6.90;99.90
47162;DHT22;32921;53.256;8.198;2024-01-30T07:53:14;6.90;99.90
47162;DHT22;32921;53.256;8.198;2024-01-30T07:55:39;7.00;99.90
47162;DHT22;32921;53.256;8.198;2024-01-30T07:58:05;7.10;99.90
47162;DHT22;32921;53.256;8.198;2024-01-30T08:00:31;7.20;99.90
47162;DHT22;32921;53.256;8.198;2024-01-30T08:02:56;7.20;99.90
47162;DHT22;32921;53.256;8.198;2024-01-30T08:05:23;7.30;99.90
47162;DHT22;32921;53.256;8.198;2024-01-30T08:07:49;7.30;99.90
47162;DHT22;32921;53.256;8.198;2024-01-30T08:10:15;7.40;99.90
47162;DHT22;32921;53.256;8.198;2024-01-30T08:12:41;7.40;99.90
47162;DHT22;32921;53.256;8.198;2024-01-30T08:15:07;7.50;99.90
47162;DHT22;32921;53.256;8.198;2024-01-30T08:17:33;7.50;99.90
47162;DHT22;32921;53.256;8.198;2024-01-30T08:19:59;7.60;99.90
47162;DHT22;32921;53.256;8.198;2024-01-30T08:22:24;7.60;99.90
47162;DHT22;32921;53.256;8.198;2024-01-30T08:24:50;7.60;99.90
47162;DHT22;32921;53.256;8.198;2024-01-30T08:27:15;7.70;99.90
47162;DHT22;32921;53.256;8.198;2024-01-30T08:29:41;7.70;99.90
47162;DHT22;32921;53.256;8.198;2024-01-30T08:32:07;7.70;99.90
47162;DHT22;32921;53.256;8.198;2024-01-30T08:34:33;7.80;99.90
47162;DHT22;32921;53.256;8.198;2024-01-30T08:36:59;7.90;99.90
47162;DHT22;32921;53.256;8.198;2024-01-30T08:39:24;7.90;99.90
47162;DHT22;32921;53.256;8.198;2024-01-30T08:41:50;8.00;99.90
47162;DHT22;32921;53.256;8.198;2024-01-30T08:44:16;8.00;99.90
47162;DHT22;32921;53.256;8.198;2024-01-30T08:46:43;8.10;99.90
47162;DHT22;32921;53.256;8.198;2024-01-30T08:49:08;8.10;99.90
47162;DHT22;32921;53.256;8.198;2024-01-30T08:51:34;8.20;99.90
47162;DHT22;32921;53.256;8.198;2024-01-30T08:54:00;8.20;99.90
47162;DHT22;32921;53.256;8.198;2024-01-30T08:56:25;8.30;99.90
47162;DHT22;32921;53.256;8.198;2024-01-30T08:58:51;8.40;99.90
47162;DHT22;32921;53.256;8.198;2024-01-30T09:01:17;8.40;99.90
47162;DHT22;32921;53.256;8.198;2024-01-30T09:03:42;8.50;99.90
47162;DHT22;32921;53.256;8.198;2024-01-30T09:06:11;8.60;99.90
47162;DHT22;32921;53.256;8.198;2024-01-30T09:08:37;8.70;99.90
47162;DHT22;32921;53.256;8.198;2024-01-30T09:11:12;8.80;99.90
47162;DHT22;32921;53.256;8.198;2024-01-30T09:13:38;8.80;99.90
47162;DHT22;32921;53.256;8.198;2024-01-30T09:16:04;8.90;99.90
47162;DHT22;32921;53.256;8.198;2024-01-30T09:18:30;9.00;99.90
47162;DHT22;32921;53.256;8.198;2024-01-30T09:20:55;9.00;99.90
47162;DHT22;32921;53.256;8.198;2024-01-30T09:23:21;9.00;99.90
47162;DHT22;32921;53.256;8.198;2024-01-30T09:25:47;9.10;99.90
47162;DHT22;32921;53.256;8.198;2024-01-30T09:28:12;9.10;99.90
47162;DHT22;32921;53.256;8.198;2024-01-30T09:30:38;9.10;99.90
47162;DHT22;32921;53.256;8.198;2024-01-30T09:33:04;9.20;99.90
47162;DHT22;32921;53.256;8.198;2024-01-30T09:35:30;9.20;99.90
47162;DHT22;32921;53.256;8.198;2024-01-30T09:37:55;9.20;99.90
47162;DHT22;32921;53.256;8.198;2024-01-30T09:40:22;9.20;99.90
47162;DHT22;32921;53.256;8.198;2024-01-30T09:42:50;9.20;99.90
47162;DHT22;32921;53.256;8.198;2024-01-30T09:45:18;9.20;99.90
47162;DHT22;32921;53.256;8.198;2024-01-30T09:47:44;9.30;99.90
47162;DHT22;32921;53.256;8.198;2024-01-30T09:50:12;9.30;99.90
47162;DHT22;32921;53.256;8.198;2024-01-30T09:52:38;9.30;99.90
47162;DHT22;32921;53.256;8.198;2024-01-30T09:55:05;9.30;99.90
47162;DHT22;32921;53.256;8.198;2024-01-30T09:57:31;9.40;99.90
47162;DHT22;32921;53.256;8.198;2024-01-30T09:59:57;9.50;99.90
47162;DHT22;32921;53.256;8.198;2024-01-30T10:02:23;9.40;99.90
47162;DHT22;32921;53.256;8.198;2024-01-30T10:04:49;9.50;99.90
47162;DHT22;32921;53.256;8.198;2024-01-30T10:07:16;9.50;99.90
47162;DHT22;32921;53.256;8.198;2024-01-30T10:09:42;9.60;99.90
47162;DHT22;32921;53.256;8.198;2024-01-30T10:12:09;9.60;99.90
47162;DHT22;32921;53.256;8.198;2024-01-30T10:14:41;9.70;99.90
47162;DHT22;32921;53.256;8.198;2024-01-30T10:17:11;9.80;99.90
47162;DHT22;32921;53.256;8.198;2024-01-30T10:19:41;10.00;99.90
47162;DHT22;32921;53.256;8.198;2024-01-30T10:22:07;10.10;99.90
47162;DHT22;32921;53.256;8.198;2024-01-30T10:24:33;10.20;99.90
47162;DHT22;32921;53.256;8.198;2024-01-30T10:26:59;10.30;99.90
47162;DHT22;32921;53.256;8.198;2024-01-30T10:29:25;10.30;99.90
47162;DHT22;32921;53.256;8.198;2024-01-30T10:32:04;10.30;99.90
47162;DHT22;32921;53.256;8.198;2024-01-30T10:34:30;10.40;99.90
47162;DHT22;32921;53.256;8.198;2024-01-30T10:37:00;10.50;99.90
47162;DHT22;32921;53.256;8.198;2024-01-30T10:39:30;10.70;99.90
47162;DHT22;32921;53.256;8.198;2024-01-30T10:42:02;10.80;99.90
47162;DHT22;32921;53.256;8.198;2024-01-30T10:44:30;11.00;99.90
47162;DHT22;32921;53.256;8.198;2024-01-30T10:47:06;11.00;99.90
47162;DHT22;32921;53.256;8.198;2024-01-30T10:49:33;11.00;99.90
47162;DHT22;32921;53.256;8.198;2024-01-30T10:51:59;11.20;99.90
47162;DHT22;32921;53.256;8.198;2024-01-30T10:54:26;11.40;99.90
47162;DHT22;32921;53.256;8.198;2024-01-30T10:56:53;11.50;99.90
47162;DHT22;32921;53.256;8.198;2024-01-30T10:59:19;11.70;99.90
47162;DHT22;32921;53.256;8.198;2024-01-30T11:01:46;11.80;99.90
47162;DHT22;32921;53.256;8.198;2024-01-30T11:04:12;12.00;99.90
47162;DHT22;32921;53.256;8.198;2024-01-30T11:06:41;12.10;99.90
47162;DHT22;32921;53.256;8.198;2024-01-30T11:09:11;12.20;99.90
47162;DHT22;32921;53.256;8.198;2024-01-30T11:11:51;12.00;99.90
47162;DHT22;32921;53.256;8.198;2024-01-30T11:14:23;12.00;99.90
47162;DHT22;32921;53.256;8.198;2024-01-30T11:16:50;11.80;99.90
47162;DHT22;32921;53.256;8.198;2024-01-30T11:19:25;11.80;99.90
47162;DHT22;32921;53.256;8.198;2024-01-30T11:21:54;11.80;99.90
47162;DHT22;32921;53.256;8.198;2024-01-30T11:24:25;11.80;99.90
47162;DHT22;32921;53.256;8.198;2024-01-30T11:26:58;11.90;99.90
47162;DHT22;32921;53.256;8.198;2024-01-30T11:29:27;12.00;99.90
47162;DHT22;32921;53.256;8.198;2024-01-30T11:31:54;12.10;99.90
47162;DHT22;32921;53.256;8.198;2024-01-30T11:34:21;12.20;99.90
47162;DHT22;32921;53.256;8.198;2024-01-30T11:37:03;12.20;99.90
47162;DHT22;32921;53.256;8.198;2024-01-30T11:39:31;12.30;99.90
47162;DHT22;32921;53.256;8.198;2024-01-30T11:41:59;12.30;99.90
47162;DHT22;32921;53.256;8.198;2024-01-30T11:44:25;12.00;99.90
47162;DHT22;32921;53.256;8.198;2024-01-30T11:46:51;12.00;99.90
47162;DHT22;32921;53.256;8.198;2024-01-30T11:49:18;12.10;99.90
47162;DHT22;32921;53.256;8.198;2024-01-30T11:51:46;12.30;99.90
47162;DHT22;32921;53.256;8.198;2024-01-30T11:54:14;12.40;99.90
47162;DHT22;32921;53.256;8.198;2024-01-30T11:56:40;12.50;99.90
47162;DHT22;32921;53.256;8.198;2024-01-30T11:59:05;12.40;99.90
47162;DHT22;32921;53.256;8.198;2024-01-30T12:01:31;12.50;99.90
47162;DHT22;32921;53.256;8.198;2024-01-30T12:03:58;12.60;99.90
47162;DHT22;32921;53.256;8.198;2024-01-30T12:06:24;12.70;99.90
47162;DHT22;32921;53.256;8.198;2024-01-30T12:09:00;12.70;99.90
47162;DHT22;32921;53.256;8.198;2024-01-30T12:11:26;12.70;99.90
47162;DHT22;32921;53.256;8.198;2024-01-30T12:13:53;12.80;99.90
47162;DHT22;32921;53.256;8.198;2024-01-30T12:16:19;12.80;99.90
47162;DHT22;32921;53.256;8.198;2024-01-30T12:18:45;12.80;99.90
47162;DHT22;32921;53.256;8.198;2024-01-30T12:21:11;12.80;99.90
47162;DHT22;32921;53.256;8.198;2024-01-30T12:23:37;12.70;99.90
47162;DHT22;32921;53.256;8.198;2024-01-30T12:26:03;12.60;99.90
47162;DHT22;32921;53.256;8.198;2024-01-30T12:28:32;12.60;99.90
47162;DHT22;32921;53.256;8.198;2024-01-30T12:31:02;12.50;99.90
47162;DHT22;32921;53.256;8.198;2024-01-30T12:33:29;12.50;99.90
47162;DHT22;32921;53.256;8.198;2024-01-30T12:35:55;12.40;99.90
47162;DHT22;32921;53.256;8.198;2024-01-30T12:38:21;12.30;99.90
47162;DHT22;32921;53.256;8.198;2024-01-30T12:40:47;12.30;99.90
47162;DHT22;32921;53.256;8.198;2024-01-30T12:43:13;12.30;99.90
47162;DHT22;32921;53.256;8.198;2024-01-30T12:45:41;12.30;99.90
47162;DHT22;32921;53.256;8.198;2024-01-30T12:48:07;12.30;99.90
47162;DHT22;32921;53.256;8.198;2024-01-30T12:50:32;12.20;99.90
47162;DHT22;32921;53.256;8.198;2024-01-30T12:52:58;12.10;99.90
47162;DHT22;32921;53.256;8.198;2024-01-30T12:55:24;12.00;99.90
47162;DHT22;32921;53.256;8.198;2024-01-30T12:57:50;12.00;99.90
47162;DHT22;32921;53.256;8.198;2024-01-30T13:00:16;12.10;99.90
47162;DHT22;32921;53.256;8.198;2024-01-30T13:02:42;12.10;99.90
47162;DHT22;32921;53.256;8.198;2024-01-30T13:05:10;12.10;99.90
47162;DHT22;32921;53.256;8.198;2024-01-30T13:07:35;12.00;99.90
47162;DHT22;32921;53.256;8.198;2024-01-30T13:10:02;11.90;99.90
47162;DHT22;32921;53.256;8.198;2024-01-30T13:12:28;11.90;99.90
47162;DHT22;32921;53.256;8.198;2024-01-30T13:14:54;11.90;99.90
47162;DHT22;32921;53.256;8.198;2024-01-30T13:17:20;11.80;99.90
47162;DHT22;32921;53.256;8.198;2024-01-30T13:19:46;11.80;99.90
47162;DHT22;32921;53.256;8.198;2024-01-30T13:22:11;11.90;99.90
47162;DHT22;32921;53.256;8.198;2024-01-30T13:24:37;11.90;99.90
47162;DHT22;32921;53.256;8.198;2024-01-30T13:27:03;11.90;99.90
47162;DHT22;32921;53.256;8.198;2024-01-30T13:29:31;11.90;99.90
47162;DHT22;32921;53.256;8.198;2024-01-30T13:31:56;12.00;99.90
47162;DHT22;32921;53.256;8.198;2024-01-30T13:34:22;12.00;99.90
47162;DHT22;32921;53.256;8.198;2024-01-30T13:36:48;12.00;99.90
47162;DHT22;32921;53.256;8.198;2024-01-30T13:39:14;12.00;99.90
47162;DHT22;32921;53.256;8.198;2024-01-30T13:41:41;11.90;99.90
47162;DHT22;32921;53.256;8.198;2024-01-30T13:44:07;12.00;99.90
47162;DHT22;32921;53.256;8.198;2024-01-30T13:46:34;12.10;99.90
47162;DHT22;32921;53.256;8.198;2024-01-30T13:49:00;12.40;99.90
47162;DHT22;32921;53.256;8.198;2024-01-30T13:51:26;12.50;99.90
47162;DHT22;32921;53.256;8.198;2024-01-30T13:53:52;12.50;99.90
47162;DHT22;32921;53.256;8.198;2024-01-30T13:56:18;12.40;99.90
47162;DHT22;32921;53.256;8.198;2024-01-30T13:58:44;12.20;99.90
47162;DHT22;32921;53.256;8.198;2024-01-30T14:01:10;12.00;99.90
47162;DHT22;32921;53.256;8.198;2024-01-30T14:03:35;12.00;99.90
47162;DHT22;32921;53.256;8.198;2024-01-30T14:06:01;11.90;99.90
47162;DHT22;32921;53.256;8.198;2024-01-30T14:08:27;11.80;99.90
47162;DHT22;32921;53.256;8.198;2024-01-30T14:10:54;11.80;99.90
47162;DHT22;32921;53.256;8.198;2024-01-30T14:13:21;11.90;99.90
47162;DHT22;32921;53.256;8.198;2024-01-30T14:15:48;12.00;99.90
47162;DHT22;32921;53.256;8.198;2024-01-30T14:18:14;12.10;99.90
47162;DHT22;32921;53.256;8.198;2024-01-30T14:20:40;12.20;99.90
47162;DHT22;32921;53.256;8.198;2024-01-30T14:23:06;12.40;99.90
47162;DHT22;32921;53.256;8.198;2024-01-30T14:25:32;12.50;99.90
47162;DHT22;32921;53.256;8.198;2024-01-30T14:27:58;12.70;99.90
47162;DHT22;32921;53.256;8.198;2024-01-30T14:30:23;12.70;99.90
47162;DHT22;32921;53.256;8.198;2024-01-30T14:32:49;12.50;99.90
47162;DHT22;32921;53.256;8.198;2024-01-30T14:35:15;12.40;99.90
47162;DHT22;32921;53.256;8.198;2024-01-30T14:37:41;12.30;99.90
47162;DHT22;32921;53.256;8.198;2024-01-30T14:40:07;12.20;99.90
47162;DHT22;32921;53.256;8.198;2024-01-30T14:42:33;12.20;99.90
47162;DHT22;32921;53.256;8.198;2024-01-30T14:44:58;12.20;99.90
47162;DHT22;32921;53.256;8.198;2024-01-30T14:47:25;12.10;99.90
47162;DHT22;32921;53.256;8.198;2024-01-30T14:49:51;12.10;99.90
47162;DHT22;32921;53.256;8.198;2024-01-30T14:52:17;12.10;99.90
47162;DHT22;32921;53.256;8.198;2024-01-30T14:54:43;12.00;99.90
47162;DHT22;32921;53.256;8.198;2024-01-30T14:57:09;12.00;99.90
47162;DHT22;32921;53.256;8.198;2024-01-30T14:59:36;11.80;99.90
47162;DHT22;32921;53.256;8.198;2024-01-30T15:02:02;11.80;99.90
47162;DHT22;32921;53.256;8.198;2024-01-30T15:04:27;11.80;99.90
47162;DHT22;32921;53.256;8.198;2024-01-30T15:06:53;11.70;99.90
47162;DHT22;32921;53.256;8.198;2024-01-30T15:09:19;11.70;99.90
47162;DHT22;32921;53.256;8.198;2024-01-30T15:11:47;11.60;99.90
47162;DHT22;32921;53.256;8.198;2024-01-30T15:14:14;11.50;99.90
47162;DHT22;32921;53.256;8.198;2024-01-30T15:16:40;11.50;99.90
47162;DHT22;32921;53.256;8.198;2024-01-30T15:19:06;11.50;99.90
47162;DHT22;32921;53.256;8.198;2024-01-30T15:21:32;11.40;99.90
47162;DHT22;32921;53.256;8.198;2024-01-30T15:23:58;11.40;99.90
47162;DHT22;32921;53.256;8.198;2024-01-30T15:26:23;11.30;99.90
47162;DHT22;32921;53.256;8.198;2024-01-30T15:28:50;11.20;99.90
47162;DHT22;32921;53.256;8.198;2024-01-30T15:31:16;11.20;99.90
47162;DHT22;32921;53.256;8.198;2024-01-30T15:33:41;11.20;99.90